Time;durP1;ratioP1;P1;durP2;ratioP2;P2;SDS_P1;SDS_P2;PMS_P1;PMS_P2;Temp;Humidity;BMP_temperature;BMP_pressure;BME280_temperature;BME280_humidity;BME280_pressure;Samples;Min_cycle;Max_cycle;Signal;HPM_P1;HPM_P2
2022/08/07 00:01:36;;;;;;;8.80;2.80;;;;;;;11.71;79.76;100741.25;104753;1274;74289;-67
2022/08/07 00:04:44;;;;;;;8.10;2.50;;;;;;;11.70;79.77;100738.84;104767;1274;59825;-68
2022/08/07 00:07:33;;;;;;;9.00;2.30;;;;;;;11.69;80.39;100740.02;104724;1274;60975;-69
2022/08/07 00:10:29;;;;;;;10.50;2.60;;;;;;;11.68;80.27;100740.41;104757;1274;73694;-68
2022/08/07 00:13:20;;;;;;;8.00;2.30;;;;;;;11.67;80.29;100743.85;105163;1274;68629;-67
2022/08/07 00:16:15;;;;;;;11.60;2.40;;;;;;;11.68;80.70;100744.73;104925;1274;72361;-68
2022/08/07 00:19:19;;;;;;;7.10;2.30;;;;;;;11.70;80.96;100739.39;104707;1274;60245;-68
2022/08/07 00:22:32;;;;;;;6.80;2.70;;;;;;;11.73;81.04;100740.95;104816;1277;60363;-68
2022/08/07 00:25:23;;;;;;;8.60;2.60;;;;;;;11.74;81.24;100739.67;104642;1275;71891;-67
2022/08/07 00:28:13;;;;;;;7.70;3.10;;;;;;;11.72;81.21;100739.09;104555;1274;68528;-67
2022/08/07 00:31:07;;;;;;;9.00;2.70;;;;;;;11.75;81.51;100748.29;104765;1274;73490;-66
2022/08/07 00:34:02;;;;;;;8.80;2.70;;;;;;;11.74;81.81;100750.45;104853;1274;59920;-67
2022/08/07 00:36:56;;;;;;;7.60;2.70;;;;;;;11.73;81.42;100745.58;104665;1274;60404;-66
2022/08/07 00:39:46;;;;;;;9.60;2.70;;;;;;;11.73;81.78;100750.07;104676;1274;74863;-65
2022/08/07 00:42:41;;;;;;;8.80;2.30;;;;;;;11.72;81.73;100742.48;104888;1274;69589;-66
2022/08/07 00:45:29;;;;;;;8.00;3.10;;;;;;;11.71;82.15;100742.38;104902;1274;74443;-67
2022/08/07 00:48:18;;;;;;;11.40;3.10;;;;;;;11.71;82.27;100739.36;104692;1275;59680;-66
2022/08/07 00:51:17;;;;;;;7.30;2.80;;;;;;;11.69;82.18;100745.14;105051;1274;61916;-66
2022/08/07 00:54:06;;;;;;;8.10;2.30;;;;;;;11.68;82.22;100748.63;104556;1275;74696;-66
2022/08/07 00:56:58;;;;;;;7.50;2.50;;;;;;;11.67;82.25;100742.97;104928;1274;68480;-66
2022/08/07 00:59:47;;;;;;;10.20;3.00;;;;;;;11.68;82.73;100745.79;104714;1274;74402;-66
2022/08/07 01:02:35;;;;;;;8.20;2.40;;;;;;;11.68;82.50;100746.11;104886;1274;59918;-66
2022/08/07 01:05:27;;;;;;;9.60;2.50;;;;;;;11.68;82.43;100742.78;104501;1274;60659;-66
2022/08/07 01:08:16;;;;;;;7.90;2.70;;;;;;;11.67;82.52;100739.64;104701;1274;74724;-67
2022/08/07 01:11:08;;;;;;;8.30;3.00;;;;;;;11.64;82.36;100741.76;104576;1275;67979;-66
2022/08/07 01:14:19;;;;;;;9.10;2.60;;;;;;;11.63;82.53;100740.08;104861;1274;72016;-66
2022/08/07 01:17:15;;;;;;;8.50;2.50;;;;;;;11.61;82.67;100743.95;104864;1274;60003;-64
2022/08/07 01:20:11;;;;;;;11.20;2.50;;;;;;;11.60;82.54;100744.38;104678;1275;60840;-65
2022/08/07 01:23:05;;;;;;;7.00;2.50;;;;;;;11.61;83.17;100748.04;104418;1278;73873;-63
2022/08/07 01:26:01;;;;;;;7.00;2.50;;;;;;;11.61;83.34;100744.85;104433;1278;67802;-66
2022/08/07 01:28:52;;;;;;;9.80;2.70;;;;;;;11.62;83.78;100742.16;104412;1277;73939;-65
2022/08/07 01:31:49;;;;;;;6.90;2.50;;;;;;;11.63;83.91;100742.92;104579;1278;59652;-64
2022/08/07 01:34:38;;;;;;;7.80;2.60;;;;;;;11.62;83.60;100743.88;104388;1277;62174;-64
2022/08/07 01:37:30;;;;;;;10.70;3.00;;;;;;;11.60;83.33;100744.20;104350;1278;74277;-68
2022/08/07 01:40:23;;;;;;;8.40;2.90;;;;;;;11.58;83.63;100741.50;104294;1278;70007;-66
2022/08/07 01:43:16;;;;;;;10.20;2.90;;;;;;;11.57;83.56;100745.09;104460;1278;74449;-67
2022/08/07 01:46:05;;;;;;;8.00;2.60;;;;;;;11.58;83.55;100747.55;104308;1278;61265;-66
2022/08/07 01:49:01;;;;;;;7.70;2.20;;;;;;;11.56;83.69;100746.77;104468;1277;61003;-64
2022/08/07 01:51:50;;;;;;;8.30;2.40;;;;;;;11.56;83.48;100749.77;104344;1278;74768;-67
2022/08/07 01:54:55;;;;;;;7.30;2.90;;;;;;;11.55;83.70;100749.71;104536;1277;66770;-65
2022/08/07 01:57:48;;;;;;;7.60;2.50;;;;;;;11.53;84.05;100753.41;104508;1278;73204;-68
2022/08/07 02:01:07;;;;;;;7.70;2.80;;;;;;;11.50;83.67;100748.98;104680;1274;59700;-66
2022/08/07 02:04:34;;;;;;;8.50;2.60;;;;;;;11.46;84.28;100746.25;104885;1274;61604;-66
2022/08/07 02:07:31;;;;;;;9.10;3.10;;;;;;;11.44;84.33;100753.72;104722;1275;73669;-68
2022/08/07 02:10:41;;;;;;;9.90;2.70;;;;;;;11.40;84.57;100753.95;104962;1274;69511;-68
2022/08/07 02:13:38;;;;;;;9.90;2.70;;;;;;;11.39;84.63;100753.88;104884;1274;74421;-66
2022/08/07 02:16:50;;;;;;;10.70;2.40;;;;;;;11.37;84.75;100757.89;104687;1274;61245;-67
2022/08/07 02:19:43;;;;;;;8.60;3.00;;;;;;;11.37;85.03;100760.04;104673;1274;61975;-65
2022/08/07 02:22:56;;;;;;;11.80;2.80;;;;;;;11.37;85.05;100755.78;104952;1274;74736;-64
2022/08/07 02:25:47;;;;;;;8.70;2.90;;;;;;;11.38;85.44;100756.60;104891;1275;68145;-63
2022/08/07 02:28:57;;;;;;;8.80;2.40;;;;;;;11.39;86.15;100753.11;104696;1274;74498;-64
2022/08/07 02:31:48;;;;;;;10.40;2.30;;;;;;;11.41;86.10;100752.28;104695;1275;60309;-66
2022/08/07 02:34:40;;;;;;;8.40;2.70;;;;;;;11.42;86.67;100750.60;104724;1274;62100;-64
2022/08/07 02:37:40;;;;;;;7.90;2.50;;;;;;;11.46;86.14;100755.48;104904;1274;73392;-64
2022/08/07 02:40:32;;;;;;;7.30;2.20;;;;;;;11.51;86.23;100757.48;104846;1274;68628;-66
2022/08/07 02:43:23;;;;;;;9.10;2.70;;;;;;;11.54;86.02;100759.33;104395;1279;73494;-65
2022/08/07 02:46:16;;;;;;;7.30;2.30;;;;;;;11.58;86.30;100759.79;104280;1279;60273;-64
2022/08/07 02:49:06;;;;;;;7.80;2.30;;;;;;;11.61;86.17;100759.95;104464;1279;60260;-64
2022/08/07 02:51:57;;;;;;;8.90;2.40;;;;;;;11.64;86.42;100762.79;104239;1279;72911;-64
2022/08/07 02:54:48;;;;;;;7.10;2.30;;;;;;;11.65;86.22;100761.23;103533;1279;1003053;-65
2022/08/07 02:57:40;;;;;;;11.30;2.80;;;;;;;11.68;86.82;100762.29;104453;1279;72965;-65
2022/08/07 03:00:35;;;;;;;7.70;2.10;;;;;;;11.72;86.14;100765.42;104292;1279;60729;-65
2022/08/07 03:03:32;;;;;;;8.10;2.60;;;;;;;11.74;86.11;100768.79;104376;1278;60292;-64
2022/08/07 03:06:38;;;;;;;10.40;2.40;;;;;;;11.77;85.96;100769.65;104535;1279;73411;-65
2022/08/07 03:09:26;;;;;;;6.70;2.00;;;;;;;11.80;85.85;100770.70;104270;1280;68542;-65
2022/08/07 03:12:33;;;;;;;6.60;2.10;;;;;;;11.83;86.31;100771.70;104642;1279;74357;-65
2022/08/07 03:15:26;;;;;;;7.70;2.10;;;;;;;11.89;86.11;100770.42;104528;1277;60085;-65
2022/08/07 03:18:34;;;;;;;7.20;2.10;;;;;;;11.94;86.28;100771.64;104759;1277;60923;-62
2022/08/07 03:21:26;;;;;;;10.70;2.50;;;;;;;12.00;86.22;100771.27;104574;1277;73271;-64
2022/08/07 03:24:14;;;;;;;7.10;2.30;;;;;;;12.05;86.20;100770.53;104449;1279;69730;-64
2022/08/07 03:27:15;;;;;;;8.00;2.10;;;;;;;12.09;86.52;100769.54;104353;1277;73337;-64
2022/08/07 03:30:20;;;;;;;7.80;2.40;;;;;;;12.13;86.49;100766.77;104566;1277;61529;-65
2022/08/07 03:33:13;;;;;;;7.90;2.40;;;;;;;12.17;86.09;100758.28;104487;1280;60561;-64
2022/08/07 03:36:01;;;;;;;6.70;2.00;;;;;;;12.22;86.12;100757.73;104326;1280;73843;-65
2022/08/07 03:39:04;;;;;;;7.00;1.90;;;;;;;12.27;85.95;100761.09;104460;1279;69549;-66
2022/08/07 03:41:57;;;;;;;6.90;1.90;;;;;;;12.33;85.85;100764.60;104452;1279;74467;-67
2022/08/07 03:44:48;;;;;;;7.90;2.50;;;;;;;12.38;85.45;100761.35;104560;1277;60851;-64
2022/08/07 03:47:45;;;;;;;6.40;2.00;;;;;;;12.44;85.39;100761.23;104412;1277;61572;-65
2022/08/07 03:50:40;;;;;;;8.20;1.90;;;;;;;12.53;84.81;100761.69;104304;1279;73544;-62
2022/08/07 03:53:43;;;;;;;7.20;2.00;;;;;;;12.61;84.50;100761.81;104576;1278;69580;-66
2022/08/07 03:56:55;;;;;;;7.50;2.20;;;;;;;12.69;84.12;100764.59;104697;1278;74547;-67
2022/08/07 03:59:55;;;;;;;6.30;2.00;;;;;;;12.76;83.83;100765.14;104548;1277;59684;-65
2022/08/07 04:02:51;;;;;;;8.60;2.20;;;;;;;12.83;83.79;100764.10;104494;1278;61819;-65
2022/08/07 04:05:49;;;;;;;7.20;1.80;;;;;;;12.87;83.50;100759.08;104507;1280;73962;-67
2022/08/07 04:08:40;;;;;;;7.90;2.20;;;;;;;12.93;83.49;100759.73;104586;1279;68656;-67
2022/08/07 04:11:32;;;;;;;9.60;1.90;;;;;;;13.02;83.25;100761.73;104694;1277;74378;-68
2022/08/07 04:14:42;;;;;;;9.70;2.10;;;;;;;13.15;83.14;100765.92;104653;1276;60475;-67
2022/08/07 04:17:37;;;;;;;7.90;2.40;;;;;;;13.28;82.78;100766.29;104893;1276;60661;-67
2022/08/07 04:20:46;;;;;;;6.60;2.10;;;;;;;13.43;82.13;100766.02;104890;1277;74190;-67
2022/08/07 04:23:42;;;;;;;6.90;2.00;;;;;;;13.54;81.59;100767.13;104540;1275;69574;-65
2022/08/07 04:26:50;;;;;;;6.90;2.00;;;;;;;13.61;81.30;100768.73;104446;1276;74277;-64
2022/08/07 04:29:43;;;;;;;6.50;1.70;;;;;;;13.66;80.99;100771.38;104915;1274;59644;-70
2022/08/07 04:33:13;;;;;;;7.60;1.90;;;;;;;13.70;80.78;100776.77;104962;1274;59637;-69
2022/08/07 04:36:07;;;;;;;7.90;2.30;;;;;;;13.75;80.61;100783.34;104628;1277;73859;-68
2022/08/07 04:38:55;;;;;;;6.70;1.90;;;;;;;13.82;80.50;100780.42;104640;1274;68812;-68
2022/08/07 04:41:45;;;;;;;7.60;2.30;;;;;;;13.89;80.25;100780.60;104592;1274;74264;-67
2022/08/07 04:44:38;;;;;;;8.40;1.60;;;;;;;13.94;79.88;100784.82;104650;1274;59768;-71
2022/08/07 04:48:03;;;;;;;8.90;1.90;;;;;;;13.90;79.66;100775.55;104312;1280;60247;-69
2022/08/07 04:51:48;;;;;;;7.60;1.70;;;;;;;13.93;79.64;100787.98;104470;1280;73506;-67
2022/08/07 04:55:19;;;;;;;6.40;1.70;;;;;;;13.89;79.60;100792.55;104460;1279;67647;-67
2022/08/07 04:58:43;;;;;;;7.40;1.90;;;;;;;13.76;79.58;100794.81;104677;1278;73431;-67
2022/08/07 05:02:31;;;;;;;6.20;1.90;;;;;;;13.66;79.99;100800.27;104421;1278;59671;-68
2022/08/07 05:05:34;;;;;;;7.40;1.80;;;;;;;13.62;80.19;100798.27;104394;1278;59967;-70
2022/08/07 05:08:54;;;;;;;9.50;2.00;;;;;;;13.59;80.36;100796.71;104459;1279;74619;-69
2022/08/07 05:11:52;;;;;;;8.40;1.80;;;;;;;13.65;80.36;100800.15;104616;1278;67426;-67
2022/08/07 05:14:48;;;;;;;8.00;1.60;;;;;;;13.76;80.20;100797.69;104467;1279;72787;-68
2022/08/07 05:18:02;;;;;;;7.10;1.80;;;;;;;14.01;79.64;100799.63;104424;1279;59756;-69
2022/08/07 05:21:00;;;;;;;8.10;1.90;;;;;;;14.60;78.21;100802.36;104833;1277;60557;-68
2022/08/07 05:24:05;;;;;;;7.70;2.10;;;;;;;15.62;76.18;100800.13;104642;1277;72673;-69
2022/08/07 05:26:58;;;;;;;8.10;1.90;;;;;;;17.20;71.65;100796.52;104220;1276;1518835;-69
2022/08/07 05:29:48;;;;;;;8.40;1.70;;;;;;;18.78;64.59;100789.36;104759;1276;73761;-66
2022/08/07 05:32:40;;;;;;;6.70;1.50;;;;;;;20.32;59.72;100787.38;104500;1277;59658;-67
2022/08/07 05:35:35;;;;;;;7.20;1.60;;;;;;;21.82;55.34;100787.15;104585;1277;61837;-69
2022/08/07 05:38:30;;;;;;;7.40;1.50;;;;;;;23.24;50.91;100785.33;104612;1276;73859;-69
2022/08/07 05:41:41;;;;;;;7.50;1.40;;;;;;;24.56;46.47;100784.24;104623;1276;68628;-68
2022/08/07 05:44:53;;;;;;;6.50;1.50;;;;;;;25.74;43.02;100780.53;104828;1276;73173;-68
2022/08/07 05:48:04;;;;;;;7.40;1.30;;;;;;;26.74;39.97;100778.01;104584;1276;59679;-68
2022/08/07 05:51:03;;;;;;;5.80;1.10;;;;;;;27.43;38.03;100781.80;104570;1277;62145;-70
2022/08/07 05:53:51;;;;;;;6.40;1.10;;;;;;;28.04;36.55;100778.67;104607;1276;74710;-68
2022/08/07 05:57:01;;;;;;;6.80;1.30;;;;;;;28.66;35.17;100780.34;104791;1277;69561;-68
2022/08/07 05:59:52;;;;;;;5.80;1.30;;;;;;;29.31;34.11;100780.02;104539;1276;72410;-68
2022/08/07 06:02:50;;;;;;;5.80;1.20;;;;;;;29.74;32.55;100784.25;104719;1276;59650;-72
2022/08/07 06:05:41;;;;;;;6.10;1.10;;;;;;;29.83;32.09;100782.30;104637;1277;61126;-72
2022/08/07 06:08:40;;;;;;;6.10;1.30;;;;;;;30.24;31.83;100781.36;104634;1277;74976;-73
2022/08/07 06:11:33;;;;;;;5.50;1.00;;;;;;;30.73;30.81;100779.64;104541;1276;67809;-74
2022/08/07 06:14:22;;;;;;;5.60;1.10;;;;;;;31.14;30.08;100781.11;104870;1277;71825;-73
2022/08/07 06:17:19;;;;;;;6.90;1.10;;;;;;;31.61;29.48;100781.19;104709;1277;59703;-74
2022/08/07 06:20:10;;;;;;;4.90;0.90;;;;;;;31.98;28.02;100791.10;105062;1274;62112;-73
2022/08/07 06:23:13;;;;;;;5.20;0.80;;;;;;;32.05;27.91;100786.78;104852;1274;75117;-76
2022/08/07 06:26:21;;;;;;;4.90;0.90;;;;;;;32.20;27.34;100789.34;105258;1274;66840;-73
2022/08/07 06:29:16;;;;;;;4.70;0.80;;;;;;;32.09;27.23;100790.83;105260;1274;73440;-73
2022/08/07 06:32:04;;;;;;;5.80;1.00;;;;;;;32.18;27.39;100799.38;104681;1277;59748;-70
2022/08/07 06:34:53;;;;;;;5.10;0.80;;;;;;;32.46;27.20;100796.77;104958;1275;62035;-69
2022/08/07 06:37:42;;;;;;;7.10;1.10;;;;;;;32.20;27.33;100800.76;105124;1277;74860;-72
2022/08/07 06:40:48;;;;;;;6.10;0.80;;;;;;;31.46;27.99;100803.11;104874;1277;69600;-71
2022/08/07 06:43:39;;;;;;;6.50;1.10;;;;;;;29.90;30.02;100809.77;104701;1277;74413;-74
2022/08/07 06:46:39;;;;;;;8.30;0.90;;;;;;;30.30;29.67;100802.42;104613;1277;59763;-72
2022/08/07 06:49:31;;;;;;;5.40;0.90;;;;;;;30.80;28.91;100804.70;104663;1277;61462;-71
2022/08/07 06:52:42;;;;;;;6.00;0.90;;;;;;;31.43;27.51;100802.05;104660;1274;74730;-71
2022/08/07 06:55:33;;;;;;;4.50;0.90;;;;;;;31.88;26.47;100806.80;104908;1277;69686;-71
2022/08/07 06:58:36;;;;;;;5.00;0.90;;;;;;;32.51;25.85;100809.73;104838;1275;74655;-73
2022/08/07 07:01:30;;;;;;;6.10;0.80;;;;;;;32.79;24.87;100815.27;104881;1277;59780;-73
2022/08/07 07:04:31;;;;;;;4.50;0.80;;;;;;;32.95;24.14;100814.27;105071;1277;62065;-73
2022/08/07 07:07:20;;;;;;;5.70;0.90;;;;;;;33.47;24.07;100816.63;104855;1274;74236;-72
2022/08/07 07:10:33;;;;;;;6.40;0.70;;;;;;;34.15;23.34;100814.36;104684;1277;69562;-72
2022/08/07 07:13:33;;;;;;;8.20;0.80;;;;;;;34.41;22.88;100808.14;105162;1275;71926;-74
2022/08/07 07:16:43;;;;;;;6.30;0.80;;;;;;;33.36;24.27;100809.77;105328;1274;59633;-73
2022/08/07 07:19:47;;;;;;;6.60;0.90;;;;;;;33.51;23.76;100811.39;104939;1277;60923;-75
2022/08/07 07:22:46;;;;;;;6.20;0.90;;;;;;;33.78;23.58;100806.61;104657;1276;72355;-74
2022/08/07 07:26:01;;;;;;;5.00;0.80;;;;;;;33.49;24.19;100804.46;105083;1275;66549;-73
2022/08/07 07:29:13;;;;;;;5.70;0.80;;;;;;;32.51;24.85;100800.89;105019;1275;74559;-76
2022/08/07 07:32:23;;;;;;;4.80;0.80;;;;;;;32.29;24.98;100797.60;105099;1276;59608;-75
2022/08/07 07:35:13;;;;;;;4.80;0.70;;;;;;;32.98;24.04;100791.49;104582;1275;61617;-75
2022/08/07 07:38:02;;;;;;;6.00;0.80;;;;;;;33.54;23.40;100794.20;104705;1277;74764;-77
2022/08/07 07:41:01;;;;;;;5.50;0.80;;;;;;;34.18;22.95;100792.86;104847;1276;70036;-75
2022/08/07 07:43:52;;;;;;;5.30;0.70;;;;;;;34.48;22.47;100790.35;104750;1277;73503;-78
2022/08/07 07:47:02;;;;;;;6.70;0.90;;;;;;;33.42;23.16;100792.45;104902;1276;59936;-75
2022/08/07 07:50:06;;;;;;;4.90;0.80;;;;;;;32.04;24.53;100792.23;105428;1277;60430;-76
2022/08/07 07:53:18;;;;;;;6.60;1.00;;;;;;;31.22;25.79;100791.49;104906;1275;74615;-76
2022/08/07 07:56:14;;;;;;;5.90;0.90;;;;;;;32.26;24.66;100785.41;105066;1277;66869;-74
2022/08/07 07:59:04;;;;;;;5.90;0.90;;;;;;;33.03;23.72;100787.92;104792;1277;73532;-74
2022/08/07 08:01:55;;;;;;;4.80;0.80;;;;;;;32.92;23.72;100782.84;104750;1274;59688;-77
2022/08/07 08:04:55;;;;;;;5.50;0.90;;;;;;;31.40;24.88;100794.67;104952;1274;59731;-75
2022/08/07 08:07:49;;;;;;;6.30;1.10;;;;;;;30.56;26.36;100797.77;105037;1274;74747;-76
2022/08/07 08:10:50;;;;;;;6.30;1.10;;;;;;;30.26;26.98;100794.98;104723;1274;68761;-76
2022/08/07 08:13:46;;;;;;;8.00;1.00;;;;;;;30.51;26.36;100787.40;105138;1274;72909;-76
2022/08/07 08:16:45;;;;;;;7.60;1.40;;;;;;;29.55;27.36;100794.18;105255;1276;59714;-76
2022/08/07 08:19:40;;;;;;;5.60;0.80;;;;;;;28.36;28.86;100803.02;104948;1274;60518;-77
2022/08/07 08:29:15;;;;;;;6.90;1.20;;;;;;;30.80;26.41;100789.38;105329;1276;71277;-75
2022/08/07 08:32:10;;;;;;;5.90;0.90;;;;;;;31.83;25.04;100786.04;104651;1276;59714;-75
2022/08/07 08:35:21;;;;;;;4.80;0.80;;;;;;;32.65;23.81;100783.77;104924;1276;62013;-77
2022/08/07 08:38:42;;;;;;;6.00;0.80;;;;;;;33.18;22.96;100786.34;104808;1277;75185;-76
2022/08/07 08:41:59;;;;;;;6.10;0.80;;;;;;;31.71;24.06;100791.16;104604;1277;68608;-76
2022/08/07 08:44:59;;;;;;;5.90;0.90;;;;;;;29.84;26.81;100798.43;104957;1277;73872;-76
2022/08/07 08:48:17;;;;;;;5.40;0.80;;;;;;;28.14;29.51;100797.42;104995;1277;59657;-76
2022/08/07 08:51:26;;;;;;;4.60;0.80;;;;;;;26.53;32.28;100795.55;105185;1275;60505;-74
2022/08/07 08:54:47;;;;;;;5.40;1.00;;;;;;;25.38;33.74;100805.71;104982;1276;73275;-76
2022/08/07 08:57:44;;;;;;;7.50;1.80;;;;;;;24.59;34.92;100807.39;104890;1276;68736;-75
2022/08/07 09:00:42;;;;;;;6.70;1.20;;;;;;;24.29;35.11;100803.14;104589;1276;74327;-75
2022/08/07 09:04:06;;;;;;;6.40;0.90;;;;;;;23.85;36.29;100804.23;104649;1276;59679;-74
2022/08/07 09:07:23;;;;;;;5.70;1.10;;;;;;;25.09;35.14;100800.23;104780;1276;61897;-74
2022/08/07 09:10:32;;;;;;;4.40;0.70;;;;;;;26.64;30.93;100793.18;105172;1276;73887;-75
2022/08/07 09:14:00;;;;;;;6.30;0.90;;;;;;;27.63;29.75;100794.79;105099;1275;67932;-74
2022/08/07 09:17:17;;;;;;;4.40;0.70;;;;;;;28.35;28.92;100788.30;104781;1275;74484;-73
2022/08/07 09:20:22;;;;;;;5.70;0.80;;;;;;;29.13;27.91;100788.75;104683;1274;59671;-75
2022/08/07 09:23:54;;;;;;;5.90;0.90;;;;;;;29.76;27.47;100786.73;104891;1277;61142;-75
2022/08/07 09:27:28;;;;;;;4.40;0.80;;;;;;;31.42;25.44;100780.15;104674;1274;73371;-75
2022/08/07 09:30:17;;;;;;;5.00;0.80;;;;;;;31.50;24.85;100783.95;104931;1275;69132;-76
2022/08/07 09:33:43;;;;;;;4.40;0.70;;;;;;;31.57;24.18;100777.83;104715;1274;73222;-75
2022/08/07 09:37:00;;;;;;;4.90;0.70;;;;;;;32.05;24.14;100772.06;105411;1275;59700;-73
2022/08/07 09:40:04;;;;;;;5.90;1.00;;;;;;;32.93;23.01;100775.97;104716;1277;62088;-76
2022/08/07 09:43:52;;;;;;;6.40;0.80;;;;;;;33.61;21.73;100771.52;104709;1277;73772;-72
2022/08/07 09:47:14;;;;;;;5.00;1.00;;;;;;;33.88;21.66;100767.16;105069;1274;69687;-75
2022/08/07 09:50:59;;;;;;;5.60;0.70;;;;;;;34.39;21.06;100761.04;104738;1277;73501;-73
2022/08/07 09:53:51;;;;;;;5.10;0.60;;;;;;;32.81;22.30;100770.19;105035;1274;59675;-76
2022/08/07 09:57:43;;;;;;;5.70;1.10;;;;;;;31.13;24.61;100771.20;104908;1275;60605;-74
2022/08/07 10:00:50;;;;;;;4.80;0.80;;;;;;;29.31;27.58;100780.94;104638;1275;74822;-76
2022/08/07 10:04:15;;;;;;;5.30;0.90;;;;;;;28.05;29.57;100781.52;104847;1277;67117;-75
2022/08/07 10:08:08;;;;;;;5.50;0.90;;;;;;;26.68;32.03;100786.50;104721;1275;73829;-75
2022/08/07 10:11:23;;;;;;;5.00;0.80;;;;;;;25.45;34.46;100792.98;105042;1275;59694;-76
2022/08/07 10:14:50;;;;;;;6.10;0.80;;;;;;;24.21;36.48;100786.94;105082;1274;59583;-77
2022/08/07 10:18:23;;;;;;;6.90;1.10;;;;;;;23.51;38.14;100796.61;105199;1274;72750;-74
2022/08/07 10:21:50;;;;;;;6.20;1.10;;;;;;;22.81;39.79;100793.31;104901;1275;66914;-76
2022/08/07 10:25:27;;;;;;;6.20;1.10;;;;;;;22.41;40.81;100789.98;104528;1278;71689;-75
2022/08/07 10:28:40;;;;;;;6.50;1.30;;;;;;;22.22;41.16;100789.23;104743;1277;59782;-75
2022/08/07 10:32:03;;;;;;;5.70;1.00;;;;;;;22.10;41.24;100784.13;104707;1277;61198;-76
2022/08/07 10:35:28;;;;;;;6.50;1.20;;;;;;;22.14;40.55;100784.49;104769;1277;73202;-76
2022/08/07 10:39:02;;;;;;;5.10;1.00;;;;;;;22.08;38.69;100780.34;104863;1277;68021;-74
2022/08/07 10:42:34;;;;;;;7.00;1.10;;;;;;;22.22;38.53;100774.88;104824;1277;74375;-75
2022/08/07 10:45:43;;;;;;;6.10;1.10;;;;;;;22.70;38.16;100773.46;104799;1278;59757;-73
2022/08/07 10:49:14;;;;;;;5.70;1.10;;;;;;;24.27;35.96;100769.64;104706;1277;63320;-76
2022/08/07 10:52:20;;;;;;;5.10;1.00;;;;;;;26.77;31.88;100756.84;104921;1277;74194;-76
2022/08/07 10:55:49;;;;;;;6.00;1.00;;;;;;;28.68;28.79;100755.20;104742;1277;67984;-73
2022/08/07 10:59:18;;;;;;;6.80;0.90;;;;;;;29.84;27.10;100747.05;104803;1277;72872;-73
2022/08/07 11:03:02;;;;;;;6.90;0.80;;;;;;;30.31;26.03;100745.62;104544;1278;59582;-73
2022/08/07 11:06:13;;;;;;;4.80;0.90;;;;;;;30.93;25.38;100738.55;104598;1278;61057;-74
2022/08/07 11:09:13;;;;;;;5.60;0.80;;;;;;;30.79;25.52;100732.73;104720;1277;73761;-74
2022/08/07 11:13:06;;;;;;;6.10;0.90;;;;;;;30.33;26.04;100730.00;104571;1277;67989;-72
2022/08/07 11:16:42;;;;;;;5.10;0.70;;;;;;;30.24;26.06;100726.32;104826;1277;74464;-73
2022/08/07 11:19:51;;;;;;;5.30;0.80;;;;;;;29.03;27.41;100737.88;104413;1276;59760;-74
2022/08/07 11:23:25;;;;;;;5.70;0.90;;;;;;;27.98;28.57;100737.96;105026;1275;59634;-75
2022/08/07 11:26:38;;;;;;;5.30;0.90;;;;;;;26.78;30.02;100738.48;104919;1274;73770;-72
2022/08/07 11:29:48;;;;;;;7.00;1.20;;;;;;;26.95;30.03;100739.16;104948;1275;70654;-75
2022/08/07 11:33:17;;;;;;;4.70;1.00;;;;;;;26.58;30.44;100741.52;104764;1274;72221;-75
2022/08/07 11:37:01;;;;;;;8.10;1.40;;;;;;;26.15;31.29;100740.07;104724;1275;59812;-72
2022/08/07 11:40:08;;;;;;;6.00;0.80;;;;;;;26.30;30.87;100742.32;104832;1274;60533;-73
2022/08/07 11:43:21;;;;;;;4.70;0.70;;;;;;;26.18;30.93;100735.37;104730;1274;73690;-74
2022/08/07 11:47:01;;;;;;;5.80;1.00;;;;;;;26.10;31.19;100739.09;104860;1274;69374;-76
2022/08/07 11:50:42;;;;;;;3.70;0.70;;;;;;;26.02;31.12;100732.02;103948;1284;73937;-73
2022/08/07 11:54:44;;;;;;;5.50;1.00;;;;;;;25.85;31.80;100733.82;104385;1284;59860;-76
2022/08/07 11:58:09;;;;;;;7.20;0.80;;;;;;;25.75;31.99;100735.75;104153;1284;62380;-74
2022/08/07 12:01:03;;;;;;;7.70;1.30;;;;;;;25.51;32.58;100729.95;103998;1284;76402;-68
2022/08/07 12:04:36;;;;;;;6.80;0.90;;;;;;;25.58;32.55;100733.45;104197;1284;68494;-73
2022/08/07 12:07:28;;;;;;;6.00;1.20;;;;;;;25.66;32.64;100733.81;103976;1283;74492;-74
2022/08/07 12:10:47;;;;;;;6.20;0.90;;;;;;;25.76;32.29;100735.05;104002;1283;59784;-74
2022/08/07 12:14:07;;;;;;;5.30;0.70;;;;;;;25.62;32.18;100730.16;104238;1284;60782;-74
2022/08/07 12:17:05;;;;;;;5.20;0.80;;;;;;;25.46;32.31;100727.03;104521;1282;72454;-75
2022/08/07 12:20:05;;;;;;;6.50;1.10;;;;;;;25.51;32.85;100726.21;104417;1283;69941;-73
2022/08/07 12:23:44;;;;;;;5.80;0.90;;;;;;;25.58;32.75;100722.55;104280;1282;73538;-75
2022/08/07 12:27:02;;;;;;;6.90;1.30;;;;;;;25.54;32.93;100720.57;103989;1278;59871;-74
2022/08/07 12:30:06;;;;;;;5.10;1.00;;;;;;;25.33;32.79;100716.71;105194;1276;60541;-75
2022/08/07 12:33:06;;;;;;;5.10;0.90;;;;;;;25.10;33.11;100718.91;104888;1277;72408;-75
2022/08/07 12:36:09;;;;;;;7.10;1.00;;;;;;;24.96;33.45;100726.55;104688;1277;69575;-74
2022/08/07 12:38:58;;;;;;;6.10;1.20;;;;;;;24.86;35.29;100721.29;104717;1277;74413;-74
2022/08/07 12:41:49;;;;;;;7.50;0.90;;;;;;;24.41;37.20;100726.19;104666;1277;59647;-74
2022/08/07 12:44:45;;;;;;;6.40;1.30;;;;;;;24.17;38.14;100731.96;104920;1276;59582;-75
2022/08/07 12:48:17;;;;;;;6.30;1.00;;;;;;;23.95;39.54;100727.33;104852;1276;73447;-73
2022/08/07 12:51:31;;;;;;;6.20;1.10;;;;;;;23.45;40.84;100729.39;104320;1284;66832;-74
2022/08/07 12:55:08;;;;;;;8.80;1.00;;;;;;;23.05;41.63;100732.38;104191;1282;73358;-73
2022/08/07 12:58:11;;;;;;;5.90;0.80;;;;;;;22.69;42.67;100735.70;104387;1282;59601;-74
2022/08/07 13:01:05;;;;;;;7.60;1.00;;;;;;;22.42;43.61;100735.59;104205;1283;60856;-76
2022/08/07 13:04:44;;;;;;;6.80;1.20;;;;;;;22.33;43.99;100732.19;104250;1282;74057;-75
2022/08/07 13:08:31;;;;;;;7.00;1.30;;;;;;;22.29;44.23;100728.68;104111;1283;66911;-75
2022/08/07 13:11:49;;;;;;;8.50;2.30;;;;;;;22.22;44.45;100723.06;104385;1282;72089;-76
2022/08/07 13:15:21;;;;;;;7.40;1.50;;;;;;;22.23;44.47;100722.11;104113;1282;59867;-73
2022/08/07 13:18:53;;;;;;;6.90;1.20;;;;;;;22.29;44.61;100717.77;103958;1282;60565;-75
2022/08/07 13:22:29;;;;;;;6.00;1.00;;;;;;;22.44;44.77;100714.44;103980;1282;73792;-74
2022/08/07 13:25:44;;;;;;;8.20;3.40;;;;;;;22.57;44.57;100710.77;104309;1282;68719;-74
2022/08/07 13:28:57;;;;;;;6.50;1.60;;;;;;;22.82;43.97;100710.00;104682;1276;72368;-76
2022/08/07 13:32:04;;;;;;;7.20;1.30;;;;;;;22.96;43.11;100712.41;105163;1276;59664;-74
2022/08/07 13:35:38;;;;;;;6.60;1.20;;;;;;;23.15;42.63;100710.21;105316;1276;60240;-75
2022/08/07 13:39:21;;;;;;;8.00;1.10;;;;;;;23.29;42.54;100715.73;105064;1277;74841;-74
2022/08/07 13:42:32;;;;;;;5.80;1.40;;;;;;;23.21;42.41;100713.58;105089;1277;66787;-74
2022/08/07 13:45:29;;;;;;;7.70;1.30;;;;;;;23.16;42.86;100711.40;105336;1277;74734;-74
2022/08/07 13:48:42;;;;;;;6.10;1.20;;;;;;;23.15;42.80;100708.21;105791;1276;59788;-72
2022/08/07 13:51:47;;;;;;;4.80;1.10;;;;;;;23.28;42.87;100712.45;105095;1276;60529;-74
2022/08/07 13:54:58;;;;;;;5.80;1.30;;;;;;;23.24;42.79;100710.56;105557;1276;72448;-74
2022/08/07 13:57:57;;;;;;;7.10;1.10;;;;;;;23.08;43.24;100709.55;104587;1277;66520;-73
2022/08/07 14:00:49;;;;;;;6.70;1.10;;;;;;;22.97;43.63;100704.70;104792;1276;73507;-73
2022/08/07 14:03:43;;;;;;;6.90;1.10;;;;;;;22.95;43.71;100705.52;104673;1277;59555;-75
2022/08/07 14:06:53;;;;;;;10.40;1.40;;;;;;;22.87;43.82;100705.29;104886;1276;60740;-74
2022/08/07 14:09:42;;;;;;;6.10;1.20;;;;;;;22.76;44.24;100706.20;104813;1277;73498;-73
2022/08/07 14:13:00;;;;;;;7.30;1.10;;;;;;;22.52;44.83;100707.42;105519;1277;68321;-72
2022/08/07 14:15:59;;;;;;;7.00;1.30;;;;;;;22.28;45.10;100708.20;104985;1276;74388;-76
2022/08/07 14:18:51;;;;;;;5.60;1.00;;;;;;;22.15;45.75;100711.46;104641;1276;59744;-75
2022/08/07 14:21:48;;;;;;;6.10;1.20;;;;;;;22.03;46.55;100709.98;104688;1276;62078;-73